Time;durP1;ratioP1;P1;durP2;ratioP2;P2;SDS_P1;SDS_P2;PMS_P1;PMS_P2;Temp;Humidity;BMP_temperature;BMP_pressure;BME280_temperature;BME280_humidity;BME280_pressure;Samples;Min_cycle;Max_cycle;Signal;HPM_P1;HPM_P2
2021/09/25 00:00:14;;;;;;;5.53;3.70;;;;;;;13.19;90.47;100955.56;694825;28;1141;-53
2021/09/25 00:00:34;;;;;;;6.13;3.90;;;;;;;13.13;91.14;100955.66;694627;28;3303;-52
2021/09/25 00:00:55;;;;;;;6.07;4.10;;;;;;;13.09;91.28;100958.28;694517;28;1549;-50
2021/09/25 00:01:15;;;;;;;7.05;3.95;;;;;;;13.01;91.79;100956.63;694275;28;4307;-54
2021/09/25 00:01:35;;;;;;;6.00;3.87;;;;;;;12.93;91.82;100952.34;697014;28;1118;-54
2021/09/25 00:01:56;;;;;;;6.63;3.83;;;;;;;12.95;91.73;100960.19;697162;28;1153;-52
2021/09/25 00:02:16;;;;;;;7.13;3.70;;;;;;;13.09;91.55;100957.41;697338;28;1224;-53
2021/09/25 00:02:37;;;;;;;5.80;3.53;;;;;;;13.22;90.60;100952.91;695812;28;1614;-52
2021/09/25 00:02:58;;;;;;;5.88;3.70;;;;;;;13.25;90.05;100948.50;697746;28;1110;-53
2021/09/25 00:03:18;;;;;;;6.17;3.77;;;;;;;13.18;90.71;100951.19;697865;28;1329;-53
2021/09/25 00:03:39;;;;;;;5.60;3.63;;;;;;;13.10;91.09;100949.53;697496;28;1161;-56
2021/09/25 00:04:00;;;;;;;5.50;3.87;;;;;;;13.06;91.42;100954.84;697367;28;1268;-51
2021/09/25 00:04:21;;;;;;;5.70;4.15;;;;;;;13.02;91.82;100953.13;696915;28;4416;-52
2021/09/25 00:04:41;;;;;;;6.17;4.10;;;;;;;13.00;92.07;100952.25;697527;28;1166;-50
2021/09/25 00:05:03;;;;;;;5.80;3.85;;;;;;;12.95;92.16;100952.31;697767;28;3239;-52
2021/09/25 00:05:26;;;;;;;5.32;4.00;;;;;;;12.95;91.74;100952.31;697033;28;4008;-52
2021/09/25 00:05:46;;;;;;;6.18;3.95;;;;;;;13.01;91.62;100954.00;696338;28;1328;-53
2021/09/25 00:06:07;;;;;;;5.50;3.70;;;;;;;13.05;91.24;100955.72;697438;28;1144;-54
2021/09/25 00:06:27;;;;;;;6.25;3.88;;;;;;;13.10;90.64;100954.78;696604;28;1062;-52
2021/09/25 00:06:50;;;;;;;5.87;3.80;;;;;;;13.09;90.48;100954.78;696687;28;1190;-51
2021/09/25 00:07:11;;;;;;;6.22;3.65;;;;;;;12.98;91.35;100951.41;696712;28;1177;-52
2021/09/25 00:07:32;;;;;;;6.15;3.67;;;;;;;12.89;91.63;100950.63;693577;28;4448;-55
2021/09/25 00:07:52;;;;;;;6.05;3.80;;;;;;;12.87;91.94;100952.38;692873;28;1329;-50
2021/09/25 00:08:13;;;;;;;5.73;3.50;;;;;;;12.89;91.90;100954.97;694083;28;1159;-52
2021/09/25 00:08:33;;;;;;;5.72;3.70;;;;;;;12.90;91.40;100955.00;693494;28;1334;-50
2021/09/25 00:08:54;;;;;;;5.18;3.58;;;;;;;12.88;92.02;100956.75;694178;28;1182;-53
2021/09/25 00:09:15;;;;;;;5.83;3.67;;;;;;;12.87;91.85;100949.75;693295;28;1650;-53
2021/09/25 00:09:35;;;;;;;6.10;3.78;;;;;;;12.86;92.15;100952.41;694401;28;1439;-53
2021/09/25 00:09:55;;;;;;;5.73;3.67;;;;;;;12.84;92.19;100952.41;694799;28;3694;-51
2021/09/25 00:10:16;;;;;;;6.22;3.70;;;;;;;12.88;91.70;100958.50;692620;28;4408;-53
2021/09/25 00:10:37;;;;;;;5.83;3.50;;;;;;;13.03;91.08;100960.09;692619;28;1160;-52
2021/09/25 00:10:57;;;;;;;5.85;3.20;;;;;;;13.14;90.50;100958.25;694424;28;1268;-53
2021/09/25 00:11:18;;;;;;;4.85;3.47;;;;;;;13.24;89.90;100956.38;697726;28;1266;-52
2021/09/25 00:11:39;;;;;;;5.78;3.50;;;;;;;13.23;89.79;100957.28;696891;28;1055;-52
2021/09/25 00:11:59;;;;;;;6.73;3.57;;;;;;;13.17;90.26;100954.72;693645;28;1316;-52
2021/09/25 00:12:19;;;;;;;5.90;3.70;;;;;;;13.10;90.64;100959.16;695052;28;1457;-54
2021/09/25 00:12:40;;;;;;;5.40;3.70;;;;;;;12.97;91.06;100952.28;694154;28;1389;-52
2021/09/25 00:13:01;;;;;;;5.20;3.70;;;;;;;12.86;91.81;100957.63;693976;28;3078;-51
2021/09/25 00:13:21;;;;;;;5.85;3.90;;;;;;;12.82;91.55;100951.56;693710;28;4573;-50
2021/09/25 00:13:41;;;;;;;5.75;3.80;;;;;;;12.85;91.80;100946.28;694453;28;1092;-52
2021/09/25 00:14:02;;;;;;;5.80;3.70;;;;;;;12.93;91.36;100949.72;695048;28;1148;-56
2021/09/25 00:14:22;;;;;;;6.45;3.67;;;;;;;13.05;90.99;100960.97;694602;28;1227;-52
2021/09/25 00:14:43;;;;;;;6.17;3.50;;;;;;;13.11;90.54;100951.28;694083;28;1236;-55
2021/09/25 00:15:04;;;;;;;5.63;3.35;;;;;;;13.14;90.57;100950.38;694868;28;1162;-52
2021/09/25 00:15:27;;;;;;;5.45;3.53;;;;;;;13.10;90.09;100949.53;694108;28;1196;-50
2021/09/25 00:15:47;;;;;;;5.32;3.60;;;;;;;13.03;90.61;100946.97;694274;28;1136;-56
2021/09/25 00:16:08;;;;;;;6.67;3.60;;;;;;;12.99;91.01;100955.75;693262;28;3375;-53
2021/09/25 00:16:29;;;;;;;7.18;3.70;;;;;;;12.96;90.91;100951.44;694059;28;4360;-53
2021/09/25 00:16:49;;;;;;;4.97;3.60;;;;;;;12.93;91.51;100952.34;694344;28;1466;-53
2021/09/25 00:17:11;;;;;;;5.13;3.63;;;;;;;12.91;91.50;100948.84;695406;28;1222;-50
2021/09/25 00:17:32;;;;;;;5.70;3.70;;;;;;;12.90;91.30;100955.00;694290;28;1208;-52
2021/09/25 00:17:52;;;;;;;6.70;3.83;;;;;;;12.88;91.42;100951.50;692703;28;1298;-55
2021/09/25 00:18:13;;;;;;;6.63;3.70;;;;;;;12.84;91.99;100955.03;694576;28;1194;-52
2021/09/25 00:18:35;;;;;;;6.23;3.70;;;;;;;12.84;91.59;100949.78;692063;28;1212;-54
2021/09/25 00:18:57;;;;;;;5.57;3.60;;;;;;;12.85;91.68;100950.66;690528;28;1133;-51
2021/09/25 00:19:18;;;;;;;5.57;3.45;;;;;;;12.86;91.55;100949.78;693112;28;4431;-54
2021/09/25 00:19:40;;;;;;;5.33;3.47;;;;;;;12.88;91.14;100951.50;694488;28;1286;-50
2021/09/25 00:20:01;;;;;;;5.10;3.50;;;;;;;12.90;91.44;100944.50;692899;28;2348;-51
2021/09/25 00:20:21;;;;;;;5.85;3.45;;;;;;;12.89;91.63;100950.63;694532;28;1155;-53
2021/09/25 00:20:42;;;;;;;5.97;3.60;;;;;;;12.87;91.64;100949.75;696197;28;1237;-55
2021/09/25 00:21:03;;;;;;;6.82;3.70;;;;;;;12.89;91.79;100948.00;696960;28;1406;-54
2021/09/25 00:21:25;;;;;;;6.28;3.58;;;;;;;12.93;91.66;100952.34;696849;28;1143;-51
2021/09/25 00:21:45;;;;;;;5.25;3.50;;;;;;;12.91;91.43;100948.84;697276;28;1344;-57
2021/09/25 00:22:06;;;;;;;4.60;3.40;;;;;;;12.95;91.28;100945.28;696089;28;3300;-52
2021/09/25 00:22:27;;;;;;;5.50;3.30;;;;;;;13.06;90.68;100953.06;694318;28;4357;-53
2021/09/25 00:22:47;;;;;;;5.90;3.42;;;;;;;13.12;90.06;100946.88;692944;28;1460;-53
2021/09/25 00:23:08;;;;;;;5.60;3.53;;;;;;;13.16;89.93;100951.22;694306;28;1253;-51
2021/09/25 00:23:29;;;;;;;7.10;3.60;;;;;;;13.15;89.83;100951.22;694664;28;1351;-52
2021/09/25 00:23:49;;;;;;;4.88;3.40;;;;;;;13.10;90.06;100948.66;694094;28;996;-51
2021/09/25 00:24:10;;;;;;;5.38;3.67;;;;;;;13.06;89.95;100952.22;693947;28;1254;-53
2021/09/25 00:24:30;;;;;;;7.43;3.53;;;;;;;13.02;90.37;100945.25;694511;28;1154;-51
2021/09/25 00:24:50;;;;;;;7.05;3.50;;;;;;;12.99;90.65;100945.25;693810;28;1154;-51
2021/09/25 00:25:11;;;;;;;5.17;3.50;;;;;;;12.91;90.96;100946.22;694210;28;3257;-54
2021/09/25 00:25:32;;;;;;;5.75;3.50;;;;;;;12.86;91.36;100948.03;697041;28;5449;-53
2021/09/25 00:25:53;;;;;;;5.63;3.50;;;;;;;12.81;91.49;100944.56;696970;28;1307;-52
2021/09/25 00:26:13;;;;;;;5.90;3.55;;;;;;;12.78;91.91;100947.25;697342;28;1074;-51
2021/09/25 00:26:33;;;;;;;5.60;3.85;;;;;;;12.80;91.62;100948.06;697629;28;1102;-55
2021/09/25 00:26:54;;;;;;;5.30;3.63;;;;;;;12.82;91.53;100941.06;698761;28;1133;-54
2021/09/25 00:27:14;;;;;;;4.87;3.30;;;;;;;12.81;91.28;100951.56;697969;28;1377;-55
2021/09/25 00:27:36;;;;;;;6.30;3.60;;;;;;;12.78;91.44;100947.25;696784;28;1414;-54
2021/09/25 00:27:57;;;;;;;5.45;3.63;;;;;;;12.76;91.45;100944.59;697789;28;1235;-52
2021/09/25 00:28:17;;;;;;;5.85;3.55;;;;;;;12.72;92.17;100942.03;696708;28;4712;-54
2021/09/25 00:28:37;;;;;;;5.87;3.50;;;;;;;12.67;92.33;100941.19;697111;28;3407;-52
2021/09/25 00:28:58;;;;;;;5.83;3.60;;;;;;;12.65;92.33;100945.59;697429;28;1270;-51
2021/09/25 00:29:18;;;;;;;5.50;3.75;;;;;;;12.68;92.45;100945.56;697349;28;1277;-54
2021/09/25 00:29:38;;;;;;;5.60;3.50;;;;;;;12.72;92.20;100945.53;697116;28;1296;-52
2021/09/25 00:29:59;;;;;;;5.38;3.40;;;;;;;12.75;91.69;100936.75;697287;28;1281;-53
2021/09/25 00:30:19;;;;;;;5.60;3.40;;;;;;;12.75;91.53;100944.63;697323;28;1253;-55
2021/09/25 00:30:40;;;;;;;5.97;3.90;;;;;;;12.68;92.18;100943.84;696684;28;1338;-52
2021/09/25 00:31:00;;;;;;;6.90;3.83;;;;;;;12.60;92.56;100938.63;697496;28;1401;-50
2021/09/25 00:31:23;;;;;;;7.50;4.00;;;;;;;12.56;92.69;100942.16;696754;28;4402;-52
2021/09/25 00:31:44;;;;;;;6.35;3.70;;;;;;;12.60;92.36;100943.88;695959;28;3706;-53
2021/09/25 00:32:05;;;;;;;5.50;3.58;;;;;;;12.65;92.20;100940.34;696844;28;1599;-56
2021/09/25 00:32:25;;;;;;;5.10;3.57;;;;;;;12.73;91.62;100941.16;697588;28;1166;-50
2021/09/25 00:32:46;;;;;;;5.70;3.45;;;;;;;12.80;91.15;100936.72;696006;28;1245;-51
2021/09/25 00:33:06;;;;;;;5.50;3.40;;;;;;;12.86;90.94;100942.78;694896;28;1206;-53
2021/09/25 00:33:27;;;;;;;4.97;3.60;;;;;;;12.87;90.66;100941.88;694372;28;1108;-52
2021/09/25 00:33:47;;;;;;;6.27;3.70;;;;;;;12.80;90.95;100940.22;693933;28;1043;-54
2021/09/25 00:34:08;;;;;;;6.22;3.70;;;;;;;12.75;91.56;100942.00;694554;28;1091;-51
2021/09/25 00:34:28;;;;;;;5.43;3.50;;;;;;;12.73;91.27;100938.53;693536;28;4431;-53
2021/09/25 00:34:49;;;;;;;7.07;3.75;;;;;;;12.75;91.51;100944.63;693438;28;3406;-55
2021/09/25 00:35:11;;;;;;;6.47;3.70;;;;;;;12.71;91.94;100940.28;697059;28;1327;-51
2021/09/25 00:35:31;;;;;;;5.30;3.35;;;;;;;12.71;91.55;100941.19;696367;28;1330;-52
2021/09/25 00:35:51;;;;;;;4.80;3.47;;;;;;;12.73;91.18;100933.28;696948;28;1099;-54
2021/09/25 00:36:12;;;;;;;5.03;3.50;;;;;;;12.74;90.98;100940.28;696935;28;2032;-56
2021/09/25 00:36:32;;;;;;;5.78;3.55;;;;;;;12.71;91.25;100943.78;697633;28;1202;-55
2021/09/25 00:36:53;;;;;;;5.93;3.73;;;;;;;12.69;91.81;100942.91;698407;28;1071;-53
2021/09/25 00:37:13;;;;;;;5.70;3.60;;;;;;;12.68;91.86;100937.69;696962;28;4390;-51
2021/09/25 00:37:33;;;;;;;5.27;3.60;;;;;;;12.64;91.62;100938.59;698064;28;1889;-53
2021/09/25 00:37:54;;;;;;;5.43;3.65;;;;;;;12.62;91.78;100940.38;695517;28;2082;-51
2021/09/25 00:38:14;;;;;;;6.10;3.70;;;;;;;12.60;91.88;100943.88;694211;28;1456;-53
2021/09/25 00:38:36;;;;;;;6.57;3.87;;;;;;;12.59;92.35;100938.66;694003;28;1451;-54
2021/09/25 00:38:57;;;;;;;5.30;3.65;;;;;;;12.58;92.37;100935.16;694074;28;1124;-51
2021/09/25 00:39:17;;;;;;;6.17;3.50;;;;;;;12.58;92.01;100939.53;695503;28;1114;-51
2021/09/25 00:39:37;;;;;;;5.80;3.40;;;;;;;12.62;91.71;100940.38;694381;28;1266;-52
2021/09/25 00:39:58;;;;;;;5.10;3.20;;;;;;;12.73;90.97;100943.78;697280;28;1229;-52
2021/09/25 00:40:18;;;;;;;5.23;3.40;;;;;;;12.80;90.96;100939.34;696662;28;4442;-52
2021/09/25 00:40:39;;;;;;;5.75;3.53;;;;;;;12.79;90.48;100943.72;696423;28;1304;-52
2021/09/25 00:40:59;;;;;;;6.23;3.50;;;;;;;12.72;90.91;100947.28;696982;28;2623;-51
2021/09/25 00:41:20;;;;;;;6.03;3.50;;;;;;;12.64;91.58;100944.75;697236;28;1343;-51
2021/09/25 00:41:41;;;;;;;6.22;3.50;;;;;;;12.58;91.73;100945.63;696407;28;1272;-51
2021/09/25 00:42:02;;;;;;;5.83;3.77;;;;;;;12.53;92.08;100942.22;697248;28;1527;-50
2021/09/25 00:42:22;;;;;;;5.00;3.70;;;;;;;12.49;92.52;100942.22;696439;28;1210;-52
2021/09/25 00:42:44;;;;;;;5.50;3.70;;;;;;;12.43;92.69;100940.53;697134;28;3960;-52
2021/09/25 00:43:04;;;;;;;6.00;3.90;;;;;;;12.43;92.44;100938.78;696643;28;1193;-53
2021/09/25 00:43:24;;;;;;;6.37;3.80;;;;;;;12.44;92.53;100944.88;694896;28;4414;-55
2021/09/25 00:43:45;;;;;;;6.67;3.80;;;;;;;12.46;92.32;100942.25;693851;28;1141;-53
2021/09/25 00:44:05;;;;;;;6.27;3.90;;;;;;;12.50;92.23;100943.97;693620;28;2751;-54
2021/09/25 00:44:25;;;;;;;5.83;3.83;;;;;;;12.54;91.74;100943.06;694088;28;1257;-53
2021/09/25 00:44:46;;;;;;;5.50;3.65;;;;;;;12.55;91.56;100943.03;693327;28;1225;-53
2021/09/25 00:45:11;;;;;;;5.57;3.73;;;;;;;12.58;91.49;100939.53;693547;28;1131;-51
2021/09/25 00:45:31;;;;;;;5.53;3.63;;;;;;;12.59;91.61;100942.13;694069;28;1346;-51
2021/09/25 00:45:51;;;;;;;5.00;3.33;;;;;;;12.61;91.67;100942.13;693550;28;1828;-53
2021/09/25 00:46:13;;;;;;;5.53;3.47;;;;;;;12.60;91.87;100945.66;693801;28;1052;-53
2021/09/25 00:46:33;;;;;;;5.20;3.50;;;;;;;12.58;91.81;100942.16;696681;28;4612;-52
2021/09/25 00:46:56;;;;;;;5.15;3.30;;;;;;;12.59;91.39;100942.13;696838;28;1122;-51
2021/09/25 00:47:16;;;;;;;5.00;3.25;;;;;;;12.64;91.25;100943.84;697438;28;1180;-50
2021/09/25 00:47:38;;;;;;;5.50;3.65;;;;;;;12.67;91.23;100939.47;696914;28;1159;-54
2021/09/25 00:47:58;;;;;;;5.40;3.70;;;;;;;12.68;90.89;100945.56;697551;28;1181;-51
2021/09/25 00:48:18;;;;;;;5.25;3.85;;;;;;;12.65;90.94;100945.59;697795;28;1293;-51
2021/09/25 00:48:40;;;;;;;5.93;3.70;;;;;;;12.61;91.28;100939.50;696781;28;3542;-53
2021/09/25 00:49:00;;;;;;;6.22;3.63;;;;;;;12.60;91.81;100938.63;697703;28;1326;-51
2021/09/25 00:49:21;;;;;;;5.40;3.33;;;;;;;12.59;91.37;100936.91;696108;28;4547;-53
2021/09/25 00:49:41;;;;;;;4.93;3.03;;;;;;;12.57;91.69;100943.03;696906;28;1506;-53
2021/09/25 00:50:03;;;;;;;5.57;3.38;;;;;;;12.56;91.93;100941.31;697930;28;1117;-50
2021/09/25 00:50:25;;;;;;;5.65;3.83;;;;;;;12.51;92.01;100943.09;695946;28;1410;-54
2021/09/25 00:50:46;;;;;;;5.50;3.50;;;;;;;12.54;91.44;100941.28;696524;28;1140;-54
2021/09/25 00:51:06;;;;;;;5.28;3.35;;;;;;;12.57;91.65;100943.03;696964;28;1208;-51
2021/09/25 00:51:26;;;;;;;4.87;3.37;;;;;;;12.60;90.90;100943.88;697326;28;1304;-54
2021/09/25 00:51:48;;;;;;;5.40;3.35;;;;;;;12.50;91.80;100947.47;696130;28;1119;-52
2021/09/25 00:52:08;;;;;;;5.25;3.42;;;;;;;12.46;92.52;100948.38;697130;28;1119;-50
2021/09/25 00:52:29;;;;;;;5.47;3.50;;;;;;;12.42;92.33;100946.66;695938;28;4497;-52
2021/09/25 00:52:49;;;;;;;6.33;3.50;;;;;;;12.35;92.49;100944.94;696499;28;1187;-52
2021/09/25 00:53:09;;;;;;;6.70;3.43;;;;;;;12.31;93.15;100944.13;696868;28;4140;-53
2021/09/25 00:53:30;;;;;;;5.80;3.55;;;;;;;12.32;92.93;100948.47;696471;28;3410;-53
2021/09/25 00:53:50;;;;;;;6.23;3.67;;;;;;;12.37;92.75;100943.22;697141;28;1344;-52
2021/09/25 00:54:11;;;;;;;5.03;3.40;;;;;;;12.43;92.42;100937.91;697259;28;1489;-53
2021/09/25 00:54:31;;;;;;;5.17;3.20;;;;;;;12.54;91.31;100946.53;696830;28;1246;-53
2021/09/25 00:54:52;;;;;;;5.47;3.20;;;;;;;12.56;91.23;100944.78;696946;28;1195;-52
2021/09/25 00:55:12;;;;;;;5.73;3.47;;;;;;;12.54;91.47;100943.91;696874;28;4542;-53
2021/09/25 00:55:34;;;;;;;6.55;3.40;;;;;;;12.47;91.82;100947.47;697510;28;1164;-51
2021/09/25 00:55:54;;;;;;;6.13;3.50;;;;;;;12.40;92.20;100946.66;696477;28;1231;-54
2021/09/25 00:56:16;;;;;;;5.40;3.50;;;;;;;12.38;92.15;100952.81;697465;28;2045;-52
2021/09/25 00:56:37;;;;;;;5.10;3.50;;;;;;;12.43;91.84;100946.66;696361;28;1221;-51
2021/09/25 00:56:59;;;;;;;5.22;3.22;;;;;;;12.54;91.60;100949.16;697518;28;1233;-51
2021/09/25 00:57:19;;;;;;;6.15;3.33;;;;;;;12.60;91.02;100946.50;697295;28;1257;-51
2021/09/25 00:57:41;;;;;;;5.13;3.30;;;;;;;12.55;91.49;100947.44;696519;28;1320;-52
2021/09/25 00:58:04;;;;;;;4.72;3.40;;;;;;;12.45;91.75;100949.25;697349;28;1915;-53
2021/09/25 00:58:24;;;;;;;5.68;3.55;;;;;;;12.40;92.56;100951.91;696966;28;4522;-55
2021/09/25 00:58:45;;;;;;;5.90;3.63;;;;;;;12.41;91.81;100948.41;696447;28;1409;-51
2021/09/25 00:59:06;;;;;;;5.38;3.40;;;;;;;12.54;91.65;100943.91;697053;28;1221;-50
2021/09/25 00:59:27;;;;;;;5.53;3.55;;;;;;;12.68;90.92;100943.84;696529;28;1133;-52
2021/09/25 00:59:47;;;;;;;5.17;3.50;;;;;;;12.81;90.47;100947.19;696017;28;1563;-53
2021/09/25 01:00:09;;;;;;;5.85;3.30;;;;;;;12.78;89.62;100947.25;696719;28;1160;-55
2021/09/25 01:00:31;;;;;;;5.88;3.45;;;;;;;12.63;90.19;100943.00;697293;28;1239;-52
2021/09/25 01:00:51;;;;;;;5.75;3.60;;;;;;;12.53;91.49;100947.44;696927;28;1105;-54
2021/09/25 01:01:12;;;;;;;5.50;3.40;;;;;;;12.48;91.45;100948.38;696838;28;4306;-52
2021/09/25 01:01:32;;;;;;;5.67;3.40;;;;;;;12.45;91.50;100949.25;698217;28;1344;-52
2021/09/25 01:01:53;;;;;;;5.75;3.40;;;;;;;12.50;91.26;100950.09;697176;28;1087;-51
2021/09/25 01:02:17;;;;;;;5.30;3.50;;;;;;;12.56;90.71;100947.41;697128;28;1326;-51
2021/09/25 01:02:37;;;;;;;4.65;3.20;;;;;;;12.59;90.54;100951.78;696691;28;3491;-53
2021/09/25 01:02:58;;;;;;;4.60;3.17;;;;;;;12.59;90.77;100946.53;696551;28;2156;-51
2021/09/25 01:03:18;;;;;;;5.10;3.20;;;;;;;12.57;90.84;100946.53;696624;28;1231;-53
2021/09/25 01:03:38;;;;;;;5.07;3.30;;;;;;;12.54;91.11;100953.56;697006;28;1129;-54
2021/09/25 01:03:59;;;;;;;5.47;3.40;;;;;;;12.51;91.19;100945.72;696986;28;1378;-52
2021/09/25 01:04:19;;;;;;;6.00;3.35;;;;;;;12.50;91.05;100947.47;696702;28;4414;-53
2021/09/25 01:04:40;;;;;;;5.47;3.20;;;;;;;12.52;91.28;100948.31;696606;28;1440;-52
2021/09/25 01:05:02;;;;;;;4.87;3.40;;;;;;;12.49;91.39;100948.34;696078;28;1607;-54
2021/09/25 01:05:23;;;;;;;5.88;3.30;;;;;;;12.45;91.66;100949.25;696617;28;1115;-52
2021/09/25 01:05:45;;;;;;;5.95;3.55;;;;;;;12.40;92.05;100951.03;697655;28;1104;-54
2021/09/25 01:06:05;;;;;;;5.55;3.60;;;;;;;12.40;91.77;100949.28;696928;28;1197;-52
2021/09/25 01:06:25;;;;;;;5.10;3.40;;;;;;;12.41;91.92;100948.41;697596;28;1206;-53
2021/09/25 01:06:46;;;;;;;4.60;3.20;;;;;;;12.46;91.49;100948.38;697226;28;1182;-53
2021/09/25 01:07:07;;;;;;;4.68;3.20;;;;;;;12.53;90.94;100951.81;697915;28;1201;-51
2021/09/25 01:07:27;;;;;;;5.63;3.43;;;;;;;12.63;90.74;100944.72;696635;28;4599;-52
2021/09/25 01:07:48;;;;;;;5.10;3.30;;;;;;;12.68;89.98;100945.56;696723;28;2318;-52
2021/09/25 01:08:09;;;;;;;5.00;3.20;;;;;;;12.68;90.11;100951.69;697140;28;1449;-54
2021/09/25 01:08:29;;;;;;;5.07;3.50;;;;;;;12.66;90.08;100953.44;697555;28;1311;-51
2021/09/25 01:08:52;;;;;;;5.60;3.63;;;;;;;12.57;90.26;100949.16;696926;28;1078;-52
2021/09/25 01:09:13;;;;;;;5.15;3.42;;;;;;;12.47;91.34;100944.84;697044;28;1273;-55
2021/09/25 01:09:33;;;;;;;5.07;3.23;;;;;;;12.41;91.49;100947.53;696711;28;1241;-54
2021/09/25 01:09:54;;;;;;;4.93;3.30;;;;;;;12.30;91.75;100944.13;697285;28;1265;-51
2021/09/25 01:10:16;;;;;;;5.15;3.58;;;;;;;12.21;92.40;100951.19;696527;28;4338;-51
2021/09/25 01:10:37;;;;;;;5.45;3.45;;;;;;;12.24;92.54;100947.69;695464;28;3554;-54
2021/09/25 01:10:57;;;;;;;5.93;3.60;;;;;;;12.24;92.25;100953.78;697486;28;1133;-53
2021/09/25 01:11:18;;;;;;;5.30;3.50;;;;;;;12.25;91.87;100950.28;697444;28;1198;-52
2021/09/25 01:11:38;;;;;;;4.63;3.30;;;;;;;12.22;92.35;100945.03;696594;28;1291;-50
2021/09/25 01:11:59;;;;;;;5.53;3.40;;;;;;;12.15;92.76;100945.97;697721;28;1526;-53
2021/09/25 01:12:19;;;;;;;5.25;3.40;;;;;;;12.11;93.03;100943.38;697482;28;1224;-52
2021/09/25 01:12:40;;;;;;;5.10;3.30;;;;;;;12.15;93.08;100950.34;698044;28;1061;-52
2021/09/25 01:13:00;;;;;;;4.68;3.35;;;;;;;12.16;92.70;100944.25;697464;28;1240;-52
2021/09/25 01:13:22;;;;;;;4.87;3.40;;;;;;;12.17;92.86;100941.59;696783;28;4492;-54
2021/09/25 01:13:42;;;;;;;6.15;3.30;;;;;;;12.16;92.73;100947.72;696294;28;3385;-53
2021/09/25 01:14:04;;;;;;;6.53;3.40;;;;;;;12.17;93.18;100949.47;697274;28;1454;-50
2021/09/25 01:14:24;;;;;;;5.93;3.70;;;;;;;12.13;93.16;100947.75;697072;28;1346;-54
2021/09/25 01:14:45;;;;;;;5.60;3.75;;;;;;;12.10;93.30;100945.13;697141;28;1463;-53
2021/09/25 01:15:07;;;;;;;5.43;3.60;;;;;;;12.07;93.04;100948.66;697221;28;1173;-53
2021/09/25 01:15:27;;;;;;;6.68;3.50;;;;;;;12.08;93.09;100949.53;697157;28;1197;-54
2021/09/25 01:15:48;;;;;;;5.90;3.50;;;;;;;12.09;92.93;100946.03;696974;28;1119;-54
2021/09/25 01:16:09;;;;;;;5.30;3.50;;;;;;;12.12;92.90;100943.38;694751;28;1943;-54
2021/09/25 01:16:29;;;;;;;5.37;3.50;;;;;;;12.12;92.72;100948.63;691471;28;4569;-54
2021/09/25 01:16:50;;;;;;;5.47;3.53;;;;;;;12.10;93.12;100945.13;692438;28;3770;-55
2021/09/25 01:17:12;;;;;;;5.35;3.50;;;;;;;12.12;92.92;100948.63;694507;28;1469;-51
2021/09/25 01:17:33;;;;;;;5.10;3.50;;;;;;;12.19;92.51;100945.06;693200;28;1204;-53
2021/09/25 01:17:53;;;;;;;5.73;3.50;;;;;;;12.25;91.96;100945.03;694739;28;1134;-51
2021/09/25 01:18:14;;;;;;;5.35;3.53;;;;;;;12.30;91.73;100949.38;697038;28;1143;-55
2021/09/25 01:18:35;;;;;;;5.30;3.53;;;;;;;12.31;91.73;100949.38;699318;28;1139;-51
2021/09/25 01:18:55;;;;;;;5.90;3.47;;;;;;;12.25;92.11;100942.44;697923;28;1376;-53
2021/09/25 01:19:15;;;;;;;6.73;3.50;;;;;;;12.21;92.60;100943.31;697850;28;4453;-53
2021/09/25 01:19:36;;;;;;;6.80;3.50;;;;;;;12.21;92.22;100947.69;698531;28;1250;-55
2021/09/25 01:20:00;;;;;;;5.82;3.70;;;;;;;12.17;92.99;100945.97;697878;28;3565;-50
2021/09/25 01:20:20;;;;;;;5.80;4.00;;;;;;;12.11;93.21;100948.63;697050;28;1147;-54
2021/09/25 01:20:41;;;;;;;5.37;3.80;;;;;;;12.12;93.10;100948.63;693599;28;1305;-55
2021/09/25 01:21:05;;;;;;;5.75;3.70;;;;;;;12.14;92.84;100951.22;694929;28;1143;-51
2021/09/25 01:21:27;;;;;;;5.65;3.50;;;;;;;12.16;92.75;100952.97;693055;28;1147;-50
2021/09/25 01:21:47;;;;;;;5.10;3.58;;;;;;;12.23;92.04;100948.56;693623;28;1028;-51
2021/09/25 01:22:09;;;;;;;5.70;3.42;;;;;;;12.24;91.93;100953.78;695427;28;1246;-50
2021/09/25 01:22:29;;;;;;;6.65;3.70;;;;;;;12.23;91.82;100948.56;695664;28;4448;-50
2021/09/25 01:22:50;;;;;;;6.00;3.90;;;;;;;12.23;91.88;100943.31;697248;28;1881;-52
2021/09/25 01:23:10;;;;;;;6.17;3.60;;;;;;;12.23;92.09;100954.66;696609;28;3689;-54
2021/09/25 01:23:31;;;;;;;5.20;3.60;;;;;;;12.21;92.37;100953.81;694551;28;1384;-50
2021/09/25 01:23:52;;;;;;;5.80;3.60;;;;;;;12.20;92.19;100949.44;694310;28;1146;-54
2021/09/25 01:24:12;;;;;;;5.85;3.70;;;;;;;12.20;92.52;100954.69;697298;28;1127;-53
2021/09/25 01:24:33;;;;;;;6.82;3.67;;;;;;;12.18;92.90;100953.81;698663;28;1096;-54
2021/09/25 01:24:54;;;;;;;6.70;4.03;;;;;;;12.13;93.24;100950.38;697116;28;1224;-54
2021/09/25 01:25:14;;;;;;;5.15;4.00;;;;;;;12.14;93.07;100952.09;697947;28;4541;-54
2021/09/25 01:25:35;;;;;;;4.90;3.70;;;;;;;12.15;92.58;100945.97;697945;28;1145;-51
2021/09/25 01:25:55;;;;;;;5.55;3.78;;;;;;;12.21;92.38;100947.69;697464;28;3123;-52
2021/09/25 01:26:16;;;;;;;5.20;3.60;;;;;;;12.28;91.74;100946.78;696865;28;3414;-53
2021/09/25 01:26:37;;;;;;;5.35;3.45;;;;;;;12.38;91.66;100952.81;696411;28;1188;-54
2021/09/25 01:26:57;;;;;;;6.50;3.30;;;;;;;12.37;91.03;100953.69;697170;28;1170;-53
2021/09/25 01:27:18;;;;;;;7.30;3.33;;;;;;;12.41;90.90;100947.53;698315;28;1075;-52
2021/09/25 01:27:41;;;;;;;6.03;3.40;;;;;;;12.46;90.63;100950.13;698293;28;1058;-54
2021/09/25 01:28:02;;;;;;;5.10;3.70;;;;;;;12.54;90.28;100951.78;697285;28;1117;-53
2021/09/25 01:28:22;;;;;;;4.85;3.50;;;;;;;12.55;90.22;100948.28;696385;28;4496;-53
2021/09/25 01:28:44;;;;;;;5.20;3.42;;;;;;;12.50;90.19;100951.84;697586;28;1418;-51
2021/09/25 01:29:04;;;;;;;6.45;3.70;;;;;;;12.48;90.39;100953.63;697913;28;3124;-53
2021/09/25 01:29:26;;;;;;;6.57;3.67;;;;;;;12.42;90.63;100950.16;697385;28;3547;-52
2021/09/25 01:29:47;;;;;;;7.15;3.97;;;;;;;12.42;90.72;100947.53;696752;28;1274;-52
2021/09/25 01:30:12;;;;;;;5.28;3.20;;;;;;;12.46;90.40;100945.75;697439;28;1336;-54
2021/09/25 01:30:33;;;;;;;4.95;3.45;;;;;;;12.48;90.57;100949.22;697595;28;1269;-53
2021/09/25 01:30:53;;;;;;;5.50;4.07;;;;;;;12.44;90.67;100944.88;697718;28;1093;-53
2021/09/25 01:31:15;;;;;;;5.57;3.60;;;;;;;12.36;91.65;100946.69;697243;28;4796;-53
2021/09/25 01:31:36;;;;;;;5.88;3.88;;;;;;;12.26;91.77;100946.75;697119;28;1511;-52
2021/09/25 01:31:57;;;;;;;6.32;3.90;;;;;;;12.21;91.81;100947.69;697375;28;1149;-55
2021/09/25 01:32:18;;;;;;;6.13;3.88;;;;;;;12.18;92.02;100939.84;697106;28;3324;-52
2021/09/25 01:32:39;;;;;;;5.60;3.70;;;;;;;12.11;92.39;100944.25;697112;28;1495;-52
2021/09/25 01:33:01;;;;;;;6.25;3.60;;;;;;;12.21;91.80;100939.81;694089;28;1281;-54
2021/09/25 01:33:35;;;;;;;5.53;3.58;;;;;;;12.34;91.08;100945.84;694088;28;1103;-50
2021/09/25 01:33:55;;;;;;;5.35;3.60;;;;;;;12.33;91.17;100949.34;694554;28;1306;-51
2021/09/25 01:34:16;;;;;;;5.22;3.40;;;;;;;12.24;92.29;100945.91;693235;28;5333;-54
2021/09/25 01:34:37;;;;;;;5.20;3.43;;;;;;;12.19;92.35;100947.69;697163;28;1286;-54
2021/09/25 01:34:57;;;;;;;6.15;3.90;;;;;;;12.16;92.55;100942.47;696188;28;1273;-52
2021/09/25 01:35:22;;;;;;;5.57;3.70;;;;;;;12.19;91.78;100946.84;697259;28;4103;-52
2021/09/25 01:35:42;;;;;;;6.00;3.42;;;;;;;12.23;91.48;100945.94;696252;28;1353;-54
2021/09/25 01:36:03;;;;;;;5.63;3.80;;;;;;;12.29;91.26;100945.88;694995;28;1321;-52
2021/09/25 01:36:23;;;;;;;5.97;3.50;;;;;;;12.26;90.90;100949.38;694684;28;1906;-53
2021/09/25 01:36:44;;;;;;;5.60;3.47;;;;;;;12.23;91.60;100952.03;694438;28;1463;-54
2021/09/25 01:37:05;;;;;;;5.75;3.50;;;;;;;12.18;91.75;100947.72;694892;28;1227;-53
2021/09/25 01:37:25;;;;;;;6.25;3.60;;;;;;;12.20;91.49;100949.44;694949;28;5806;-52
2021/09/25 01:37:50;;;;;;;5.23;3.57;;;;;;;12.23;91.01;100943.31;697348;28;1229;-54
2021/09/25 01:38:10;;;;;;;5.85;3.80;;;;;;;12.21;91.36;100943.31;697351;28;1341;-52
2021/09/25 01:38:31;;;;;;;6.43;3.80;;;;;;;12.14;92.12;100948.59;696506;28;2536;-54
2021/09/25 01:38:52;;;;;;;6.07;3.70;;;;;;;12.05;92.76;100941.69;696293;28;1274;-54
2021/09/25 01:39:12;;;;;;;5.50;3.70;;;;;;;12.01;92.71;100953.06;697137;28;1278;-53
2021/09/25 01:39:33;;;;;;;5.32;3.80;;;;;;;11.98;92.56;100947.84;697355;28;1449;-51